Time;durP1;ratioP1;P1;durP2;ratioP2;P2;SDS_P1;SDS_P2;PMS_P1;PMS_P2;Temp;Humidity;BMP_temperature;BMP_pressure;BME280_temperature;BME280_humidity;BME280_pressure;Samples;Min_cycle;Max_cycle;Signal;HPM_P1;HPM_P2
2022/07/20 00:04:13;;;;;;;4.45;0.98;;;;;;;24.58;41.15;101147.59;16134876;19;129718;-46
2022/07/20 00:15:15;;;;;;;4.63;0.90;;;;;;;24.57;40.89;101129.13;16141734;19;129637;-48
2022/07/20 00:20:37;;;;;;;1.63;0.90;;;;;;;24.57;40.84;101141.19;16138951;19;130213;-47
2022/07/20 00:25:58;;;;;;;1.52;0.93;;;;;;;24.56;40.83;101142.28;16138577;19;129909;-48
2022/07/20 00:31:21;;;;;;;0.88;0.80;;;;;;;24.56;40.67;101147.88;16136350;19;129602;-52
2022/07/20 00:36:43;;;;;;;1.52;0.70;;;;;;;24.55;40.93;101143.41;16134350;19;129973;-49
2022/07/20 00:42:05;;;;;;;1.50;0.65;;;;;;;24.55;40.81;101159.38;16134459;19;129421;-45
2022/07/20 00:47:27;;;;;;;3.72;0.90;;;;;;;24.55;40.90;101170.56;16136318;19;128901;-47
2022/07/20 00:52:48;;;;;;;1.10;0.80;;;;;;;24.54;40.91;101186.50;16136814;19;130197;-47
2022/07/20 00:58:10;;;;;;;1.27;0.77;;;;;;;24.54;40.66;101199.66;16138003;19;131732;-47
2022/07/20 01:03:33;;;;;;;0.88;0.60;;;;;;;24.53;40.82;101209.97;16137260;19;129256;-49
2022/07/20 01:08:55;;;;;;;0.68;0.68;;;;;;;24.53;40.96;101211.94;16134090;19;129783;-47
2022/07/20 01:14:17;;;;;;;2.47;0.90;;;;;;;24.52;40.83;101210.28;16135457;19;129170;-51
2022/07/20 01:19:38;;;;;;;0.77;0.55;;;;;;;24.52;40.74;101222.28;16135277;19;129485;-47
2022/07/20 01:25:00;;;;;;;0.95;0.65;;;;;;;24.52;40.79;101227.88;16134193;19;129442;-47
2022/07/20 01:30:22;;;;;;;0.80;0.60;;;;;;;24.53;40.74;101234.31;16131352;19;128988;-48
2022/07/20 01:35:44;;;;;;;1.02;0.93;;;;;;;24.53;40.67;101251.09;16129288;19;130666;-47
2022/07/20 01:41:05;;;;;;;3.95;1.00;;;;;;;24.51;41.06;101245.78;16134275;19;129555;-49
2022/07/20 01:46:27;;;;;;;2.45;1.33;;;;;;;24.51;40.59;101247.75;16134271;19;128999;-47
2022/07/20 01:51:49;;;;;;;2.17;1.10;;;;;;;24.51;40.83;101259.75;16128034;19;129923;-49
2022/07/20 01:57:11;;;;;;;2.15;1.60;;;;;;;24.50;40.53;101260.88;16131588;19;129938;-52
2022/07/20 02:02:32;;;;;;;3.05;1.60;;;;;;;24.50;40.68;101254.47;16132378;19;130009;-47
2022/07/20 02:07:54;;;;;;;3.35;1.55;;;;;;;24.50;40.60;101263.66;16132763;19;129622;-49
2022/07/20 02:13:16;;;;;;;4.95;1.45;;;;;;;24.49;40.80;101267.63;16132841;19;129708;-50
2022/07/20 02:18:38;;;;;;;4.50;1.67;;;;;;;24.50;40.71;101257.25;16129157;19;129021;-52
2022/07/20 02:24:00;;;;;;;2.85;1.80;;;;;;;24.49;40.74;101275.16;16131762;19;129062;-50
2022/07/20 02:29:21;;;;;;;3.42;2.00;;;;;;;24.48;40.73;101265.94;16132442;19;129685;-50
2022/07/20 02:34:43;;;;;;;4.28;1.88;;;;;;;24.49;40.90;101272.34;16145103;19;129758;-51
2022/07/20 02:40:06;;;;;;;2.88;2.00;;;;;;;24.49;40.95;101275.16;16146028;19;129576;-50
2022/07/20 02:45:27;;;;;;;3.13;1.80;;;;;;;24.49;40.58;101266.75;16144680;19;129659;-50
2022/07/20 02:50:50;;;;;;;2.42;2.10;;;;;;;24.49;40.58;101286.34;16142323;19;129894;-49
2022/07/20 02:56:11;;;;;;;2.97;2.50;;;;;;;24.47;40.89;101281.03;16145974;19;129310;-49
2022/07/20 03:01:33;;;;;;;3.03;2.25;;;;;;;24.47;40.68;101297.81;16143955;19;129284;-53
2022/07/20 03:07:01;;;;;;;3.08;2.30;;;;;;;24.47;40.77;101297.81;16139789;19;129996;-49
2022/07/20 03:12:24;;;;;;;2.85;2.33;;;;;;;24.47;40.57;101325.78;16139042;19;129777;-48
2022/07/20 03:17:51;;;;;;;3.97;2.60;;;;;;;24.46;40.98;101338.06;16141734;19;133341;-48
2022/07/20 03:23:13;;;;;;;2.50;2.03;;;;;;;24.45;40.92;101336.41;16142807;19;129257;-47
2022/07/20 03:28:35;;;;;;;3.10;2.60;;;;;;;24.45;40.92;101339.19;16143722;19;129520;-48
2022/07/20 03:33:57;;;;;;;2.60;2.33;;;;;;;24.45;40.98;101339.19;16142726;19;131217;-48
2022/07/20 03:39:18;;;;;;;3.38;2.42;;;;;;;24.44;40.99;101345.91;16142351;19;130922;-47
2022/07/20 03:44:40;;;;;;;3.58;2.38;;;;;;;24.44;41.03;101337.50;16143042;19;129035;-47
2022/07/20 03:50:03;;;;;;;3.58;2.67;;;;;;;24.44;40.99;101354.28;16132982;19;130411;-48
2022/07/20 03:55:25;;;;;;;2.85;2.42;;;;;;;24.43;41.05;101353.44;16136578;19;128878;-45
2022/07/20 04:00:46;;;;;;;3.35;2.38;;;;;;;24.44;41.15;101373.88;16139970;19;130683;-47
2022/07/20 04:06:08;;;;;;;4.65;2.72;;;;;;;24.43;41.02;101370.22;16132565;19;129557;-52
2022/07/20 04:11:30;;;;;;;3.10;2.67;;;;;;;24.43;41.01;101380.56;16137296;19;128895;-48
2022/07/20 04:16:52;;;;;;;23.23;12.25;;;;;;;24.43;41.47;101377.78;16139962;19;128923;-52
2022/07/20 04:22:13;;;;;;;32.92;14.40;;;;;;;24.40;41.95;101369.94;16140291;19;129281;-53
2022/07/20 04:27:35;;;;;;;33.92;17.38;;;;;;;24.36;42.07;101369.66;16136822;19;129770;-54
2022/07/20 04:32:57;;;;;;;38.35;18.75;;;;;;;24.32;42.17;101390.03;16138439;19;129842;-55
2022/07/20 04:38:19;;;;;;;33.00;18.45;;;;;;;24.25;42.49;101402.31;16133149;19;128896;-53
2022/07/20 04:43:41;;;;;;;53.80;18.23;;;;;;;24.21;42.61;101403.09;16137771;19;129901;-54
2022/07/20 04:49:02;;;;;;;47.30;19.88;;;;;;;24.19;42.81;101408.97;16137560;19;129030;-54
2022/07/20 04:54:24;;;;;;;31.10;17.90;;;;;;;24.16;42.83;101420.69;16134327;19;129348;-54
2022/07/20 04:59:46;;;;;;;30.08;17.42;;;;;;;24.10;42.96;101421.81;16138445;19;129292;-52
2022/07/20 05:05:08;;;;;;;27.05;16.23;;;;;;;24.08;43.09;101418.44;16132637;19;130244;-56
2022/07/20 05:10:30;;;;;;;39.53;18.63;;;;;;;24.07;43.48;101433.53;16136572;19;128939;-54
2022/07/20 05:15:52;;;;;;;27.90;17.90;;;;;;;24.06;43.68;101438.25;16137103;19;129257;-53
2022/07/20 05:21:14;;;;;;;34.03;18.02;;;;;;;24.02;43.90;101448.31;16136600;19;129971;-56
2022/07/20 05:26:36;;;;;;;33.55;16.42;;;;;;;24.03;44.14;101460.31;16137552;19;129103;-54
2022/07/20 05:31:58;;;;;;;25.80;17.27;;;;;;;24.02;43.89;101467.88;16129867;19;130363;-58
2022/07/20 05:37:20;;;;;;;33.72;17.58;;;;;;;24.06;43.85;101494.16;16130009;19;130289;-55
2022/07/20 05:42:42;;;;;;;29.63;16.42;;;;;;;24.11;43.95;101510.13;16127384;19;133871;-53
2022/07/20 05:48:05;;;;;;;25.08;16.13;;;;;;;24.16;43.50;101515.75;16134421;19;129163;-51
2022/07/20 05:53:27;;;;;;;28.20;15.85;;;;;;;24.22;43.52;101550.16;16131961;19;129978;-52
2022/07/20 05:58:49;;;;;;;21.95;14.80;;;;;;;24.25;43.21;101575.66;16133042;19;130689;-53
2022/07/20 06:04:12;;;;;;;24.23;14.88;;;;;;;24.30;43.28;101593.59;16133740;19;129463;-53
2022/07/20 06:09:34;;;;;;;24.73;14.20;;;;;;;24.33;43.21;101590.25;16143266;19;129269;-53
2022/07/20 06:14:55;;;;;;;23.98;13.93;;;;;;;24.35;43.33;101607.63;16146825;19;130087;-50
2022/07/20 06:20:17;;;;;;;25.20;13.45;;;;;;;24.36;43.38;101606.50;16144702;19;128945;-49
2022/07/20 06:25:39;;;;;;;23.45;12.50;;;;;;;24.38;43.26;101602.31;16140014;19;129415;-53
2022/07/20 06:31:01;;;;;;;15.88;11.07;;;;;;;24.39;42.86;101604.00;16142796;19;130082;-52
2022/07/20 06:36:23;;;;;;;18.17;11.20;;;;;;;24.42;43.15;101606.28;16141258;19;131397;-53
2022/07/20 06:41:45;;;;;;;14.05;10.10;;;;;;;24.44;42.96;101622.78;16143941;19;129091;-51
2022/07/20 06:47:08;;;;;;;17.20;10.90;;;;;;;24.44;43.25;101619.97;16145850;19;129523;-51
2022/07/20 06:52:33;;;;;;;14.93;10.82;;;;;;;24.45;42.56;101638.44;16138675;19;129380;-53
2022/07/20 06:57:55;;;;;;;14.38;9.70;;;;;;;24.46;42.95;101650.47;16141543;19;129266;-48
2022/07/20 07:03:17;;;;;;;15.93;9.25;;;;;;;24.47;42.68;101678.19;16138480;19;130824;-56
2022/07/20 07:08:38;;;;;;;12.50;9.30;;;;;;;24.48;42.98;101707.84;16139953;19;131751;-51
2022/07/20 07:14:00;;;;;;;14.50;9.45;;;;;;;24.47;42.71;101708.94;16142188;19;130672;-51
2022/07/20 07:19:22;;;;;;;11.40;8.07;;;;;;;24.48;42.71;101679.88;16136354;19;130409;-51
2022/07/20 07:24:44;;;;;;;9.45;7.70;;;;;;;24.48;42.74;101646.31;16140031;19;130666;-50
2022/07/20 07:30:06;;;;;;;12.68;7.95;;;;;;;24.48;42.65;101635.13;16136003;19;129424;-50
2022/07/20 07:35:28;;;;;;;12.60;7.78;;;;;;;24.49;42.96;101645.19;16138788;19;129701;-53
2022/07/20 07:40:49;;;;;;;9.93;7.50;;;;;;;24.51;42.47;101616.94;16138138;19;130659;-53
2022/07/20 07:46:11;;;;;;;13.40;7.57;;;;;;;24.52;42.40;101591.47;16141631;19;129734;-54
2022/07/20 07:51:33;;;;;;;9.27;7.10;;;;;;;24.54;42.42;101554.88;16136639;19;129480;-48
2022/07/20 07:56:55;;;;;;;9.27;6.93;;;;;;;24.53;42.48;101514.84;16135027;19;130825;-51
2022/07/20 08:02:17;;;;;;;8.73;6.10;;;;;;;24.53;42.76;101537.22;16136146;19;129989;-51
2022/07/20 08:07:40;;;;;;;8.20;6.22;;;;;;;24.55;42.45;101610.53;16135069;19;130059;-53
2022/07/20 08:13:03;;;;;;;9.43;6.60;;;;;;;24.56;42.33;101600.16;16130633;19;130632;-52
2022/07/20 08:18:25;;;;;;;8.00;6.13;;;;;;;24.55;42.04;101630.13;16137557;19;129054;-53
2022/07/20 08:23:47;;;;;;;7.88;5.93;;;;;;;24.55;42.25;101669.28;16141583;19;129612;-52
2022/07/20 08:29:09;;;;;;;8.35;5.68;;;;;;;24.56;42.39;101682.16;16139185;19;129467;-53
2022/07/20 08:34:33;;;;;;;9.43;5.57;;;;;;;24.57;42.42;101685.78;16137784;19;131177;-52
2022/07/20 08:39:55;;;;;;;7.22;5.20;;;;;;;24.56;42.67;101670.97;16138214;19;129557;-49
2022/07/20 08:45:17;;;;;;;6.65;4.95;;;;;;;24.57;42.54;101655.88;16137044;19;128939;-48
2022/07/20 08:50:39;;;;;;;9.27;4.70;;;;;;;24.58;42.42;101673.47;16136484;19;129127;-52
2022/07/20 08:56:01;;;;;;;5.28;4.28;;;;;;;24.58;42.33;101723.84;16135600;19;129502;-50
2022/07/20 09:01:22;;;;;;;6.72;4.70;;;;;;;24.58;42.24;101688.31;16130703;19;129543;-47
2022/07/20 09:06:49;;;;;;;5.70;4.40;;;;;;;24.60;42.45;101682.44;16129839;19;129359;-52
2022/07/20 09:12:10;;;;;;;6.72;4.60;;;;;;;24.58;42.42;101691.13;16131556;19;130482;-54
2022/07/20 09:17:32;;;;;;;6.65;4.38;;;;;;;24.58;42.49;101724.69;16134420;19;129386;-50
2022/07/20 09:23:00;;;;;;;9.75;4.68;;;;;;;24.60;42.25;101713.22;16135986;19;130312;-53
2022/07/20 09:28:26;;;;;;;6.20;3.78;;;;;;;24.61;42.44;101719.69;16136705;19;130203;-53
2022/07/20 09:33:54;;;;;;;8.35;4.57;;;;;;;24.61;42.27;101739.25;16131446;19;129678;-51
2022/07/20 09:39:21;;;;;;;8.82;3.88;;;;;;;24.62;42.48;101754.91;16139427;19;129282;-49
2022/07/20 09:44:43;;;;;;;5.45;3.90;;;;;;;24.61;42.41;101739.25;16151825;19;130631;-49
2022/07/20 09:50:32;;;;;;;4.32;3.85;;;;;;;24.63;42.27;101737.00;16150709;19;129808;-53
2022/07/20 09:55:54;;;;;;;5.78;3.65;;;;;;;24.62;42.08;101725.00;16147934;19;128941;-50
2022/07/20 10:01:29;;;;;;;8.25;4.35;;;;;;;24.64;42.38;101724.72;16149159;19;129120;-52
2022/07/20 10:06:52;;;;;;;11.32;4.07;;;;;;;24.63;42.31;101692.25;16141663;19;131320;-50
2022/07/20 10:12:14;;;;;;;6.88;4.45;;;;;;;24.63;42.22;101692.25;16141812;19;131458;-50
2022/07/20 10:17:38;;;;;;;4.80;3.70;;;;;;;24.64;42.35;101693.94;16147156;19;129505;-52
2022/07/20 10:23:15;;;;;;;10.07;4.40;;;;;;;24.66;42.21;101688.91;16147990;19;129450;-53
2022/07/20 10:28:37;;;;;;;10.70;4.55;;;;;;;24.64;42.35;101714.38;16146649;19;130572;-50
2022/07/20 10:33:59;;;;;;;11.30;4.20;;;;;;;24.66;42.41;101702.91;16141031;19;129988;-49
2022/07/20 10:39:44;;;;;;;9.77;4.45;;;;;;;24.68;42.41;101723.06;16146841;19;129561;-51
2022/07/20 10:45:20;;;;;;;9.80;4.88;;;;;;;24.68;42.39;101739.88;16148850;19;128992;-53
2022/07/20 10:50:49;;;;;;;8.73;4.10;;;;;;;24.67;42.65;101740.97;16145639;19;129476;-50
2022/07/20 10:56:11;;;;;;;6.70;4.28;;;;;;;24.66;42.32;101730.88;16136395;19;130196;-49
2022/07/20 11:01:32;;;;;;;19.33;5.30;;;;;;;24.67;42.60;101740.97;16142513;19;129905;-53
2022/07/20 11:06:54;;;;;;;19.73;5.05;;;;;;;24.70;42.60;101751.63;16137072;19;130765;-54
2022/07/20 11:12:25;;;;;;;20.63;4.95;;;;;;;24.73;42.89;101746.34;16141974;19;129349;-55
2022/07/20 11:17:47;;;;;;;21.15;5.20;;;;;;;24.74;42.95;101747.16;16145191;19;129349;-56
2022/07/20 11:23:08;;;;;;;16.58;5.10;;;;;;;24.75;42.76;101723.69;16140845;19;129687;-54
2022/07/20 11:28:33;;;;;;;15.00;5.30;;;;;;;24.76;42.75;101730.97;16143990;19;129316;-54
2022/07/20 11:33:56;;;;;;;;;;;;;;;24.76;42.76;101732.94;16141581;19;130218;-53
2022/07/20 11:39:18;;;;;;;16.90;5.47;;;;;;;24.82;42.90;101729.03;16140765;19;130595;-54
2022/07/20 11:44:41;;;;;;;16.27;5.28;;;;;;;24.82;43.10;101752.28;16139738;19;129431;-57
2022/07/20 11:50:07;;;;;;;15.77;5.82;;;;;;;24.86;42.85;101759.00;16142090;19;129340;-52
2022/07/20 11:55:37;;;;;;;22.10;6.07;;;;;;;24.92;43.05;101750.69;16137771;19;129217;-54
2022/07/20 12:01:01;;;;;;;11.90;5.85;;;;;;;24.96;43.18;101743.44;16141651;19;129334;-56
2022/07/20 12:06:26;;;;;;;12.38;6.35;;;;;;;25.02;43.21;101736.75;16137249;19;129529;-57
2022/07/20 12:12:01;;;;;;;11.35;5.63;;;;;;;25.07;43.12;101730.34;16139065;19;129584;-56
2022/07/20 12:17:26;;;;;;;14.40;6.40;;;;;;;25.09;43.22;101734.56;16142701;19;129429;-55
2022/07/20 12:23:01;;;;;;;12.50;5.80;;;;;;;25.13;43.53;101718.91;16137646;19;129198;-56
2022/07/20 12:28:36;;;;;;;10.70;5.90;;;;;;;25.16;43.74;101715.56;16142361;19;130248;-56
2022/07/20 12:34:18;;;;;;;13.60;6.72;;;;;;;25.16;43.50;101729.56;16135652;19;129625;-57
2022/07/20 12:39:41;;;;;;;15.57;6.82;;;;;;;25.19;43.67;101723.44;16143722;19;129517;-56
2022/07/20 12:45:07;;;;;;;15.02;6.30;;;;;;;25.21;43.31;101709.13;16134131;19;129232;-56
2022/07/20 12:50:29;;;;;;;9.63;5.45;;;;;;;25.25;43.18;101698.22;16137152;19;129169;-56
2022/07/20 12:55:51;;;;;;;12.45;5.90;;;;;;;25.26;43.00;101688.72;16139872;19;130843;-55
2022/07/20 13:01:13;;;;;;;9.15;5.55;;;;;;;25.26;43.00;101703.56;16140964;19;131927;-55
2022/07/20 13:06:36;;;;;;;10.48;5.70;;;;;;;25.26;43.16;101754.00;16134140;19;129327;-56
2022/07/20 13:11:58;;;;;;;10.02;5.78;;;;;;;25.27;43.38;101808.03;16128892;19;129500;-55
2022/07/20 13:17:20;;;;;;;10.52;6.05;;;;;;;25.26;43.50;101751.19;16135596;19;129649;-55
2022/07/20 13:22:42;;;;;;;8.82;5.63;;;;;;;25.24;42.82;101752.53;16131325;19;129875;-56
2022/07/20 13:28:04;;;;;;;11.32;6.22;;;;;;;25.20;43.25;101729.84;16136483;19;129108;-55
2022/07/20 13:33:32;;;;;;;11.00;6.20;;;;;;;25.11;43.38;101737.91;16132036;19;128905;-53
2022/07/20 13:38:54;;;;;;;14.40;6.43;;;;;;;25.06;44.32;101737.06;16135700;19;129944;-56
2022/07/20 13:44:17;;;;;;;10.02;6.40;;;;;;;25.02;44.67;101737.63;16131864;19;129611;-56
2022/07/20 13:49:40;;;;;;;14.07;6.32;;;;;;;25.07;45.24;101762.00;16133764;19;129522;-56
2022/07/20 13:55:02;;;;;;;11.73;7.35;;;;;;;25.09;45.25;101750.50;16125306;19;129633;-52
2022/07/20 14:00:24;;;;;;;16.92;7.50;;;;;;;25.10;45.55;101741.88;16118219;19;129511;-55
2022/07/20 14:05:49;;;;;;;16.98;7.22;;;;;;;25.11;45.33;101729.53;16116165;19;129530;-55
2022/07/20 14:11:10;;;;;;;13.30;7.03;;;;;;;25.10;45.40;101733.47;16126331;19;130492;-54
2022/07/20 14:16:33;;;;;;;16.50;7.75;;;;;;;25.16;44.95;101751.13;16126435;19;129299;-54
2022/07/20 14:21:55;;;;;;;14.13;7.60;;;;;;;25.17;45.11;101747.22;16125630;19;130204;-50
2022/07/20 14:27:17;;;;;;;9.98;5.80;;;;;;;25.18;45.12;101754.47;16135328;19;129231;-54
2022/07/20 14:32:39;;;;;;;11.68;6.95;;;;;;;25.19;44.84;101750.56;16143922;19;129521;-52
2022/07/20 14:38:01;;;;;;;8.85;5.85;;;;;;;25.22;44.91;101749.22;16148749;19;129024;-52
2022/07/20 14:43:22;;;;;;;12.07;6.15;;;;;;;25.23;44.71;101750.91;16146761;19;129365;-51
2022/07/20 14:48:44;;;;;;;9.90;5.90;;;;;;;25.23;44.75;101748.09;16146306;19;129247;-52
2022/07/20 14:54:06;;;;;;;12.05;5.25;;;;;;;25.24;44.56;101735.75;16141621;19;129534;-51
2022/07/20 14:59:28;;;;;;;10.48;6.13;;;;;;;25.24;44.69;101746.94;16146611;19;129613;-54
2022/07/20 15:04:50;;;;;;;13.32;6.15;;;;;;;25.24;44.69;101758.16;16143026;19;131436;-47
2022/07/20 15:10:12;;;;;;;8.60;5.38;;;;;;;25.23;44.28;101750.91;16148117;19;129462;-51
2022/07/20 15:15:34;;;;;;;12.40;5.55;;;;;;;25.17;44.49;101742.44;16146957;19;128985;-50
2022/07/20 15:20:55;;;;;;;9.85;5.40;;;;;;;25.16;44.40;101712.75;16139623;19;128955;-53
2022/07/20 15:26:17;;;;;;;8.80;5.20;;;;;;;25.15;44.54;101749.44;16144755;19;129976;-55
2022/07/20 15:31:39;;;;;;;14.77;6.05;;;;;;;25.11;44.69;101743.53;16141671;19;129431;-54
2022/07/20 15:37:21;;;;;;;10.38;6.88;;;;;;;25.15;44.79;101749.44;16143222;19;129617;-57
2022/07/20 15:42:42;;;;;;;13.52;8.32;;;;;;;25.17;44.52;101742.44;16143576;19;129047;-56
2022/07/20 15:48:04;;;;;;;19.00;7.78;;;;;;;25.16;44.18;101746.38;16141615;19;129434;-57
2022/07/20 15:53:26;;;;;;;21.85;8.80;;;;;;;25.19;43.60;101757.03;16137769;19;130232;-58
2022/07/20 15:58:48;;;;;;;23.70;8.73;;;;;;;25.21;42.96;101744.72;16142831;19;129542;-57
2022/07/20 16:04:10;;;;;;;19.38;8.48;;;;;;;25.23;42.69;101734.09;16137618;19;132159;-56
2022/07/20 16:09:33;;;;;;;16.20;8.55;;;;;;;25.24;42.21;101752.53;16143253;19;129870;-58
2022/07/20 16:14:55;;;;;;;15.57;8.48;;;;;;;25.23;42.06;101731.28;16136673;19;130195;-57
2022/07/20 16:20:17;;;;;;;18.55;8.63;;;;;;;25.20;42.18;101727.06;16136792;19;130100;-57
2022/07/20 16:25:39;;;;;;;23.58;8.82;;;;;;;25.19;42.54;101719.78;16141947;19;129505;-58
2022/07/20 16:31:00;;;;;;;13.45;8.52;;;;;;;25.17;42.31;101697.66;16134960;19;130619;-60
2022/07/20 16:36:31;;;;;;;21.00;9.73;;;;;;;25.16;42.58;101679.16;16140030;19;130008;-59
2022/07/20 16:41:53;;;;;;;20.08;8.90;;;;;;;25.19;42.69;101677.75;16138536;19;129790;-61
2022/07/20 16:47:14;;;;;;;14.90;8.27;;;;;;;25.19;42.69;101678.63;16138648;19;129478;-58
2022/07/20 16:52:36;;;;;;;15.80;8.73;;;;;;;25.22;42.61;101660.44;16134522;19;129913;-58
2022/07/20 16:57:58;;;;;;;11.85;8.43;;;;;;;25.19;42.53;101670.22;16136774;19;129871;-58
2022/07/20 17:03:20;;;;;;;15.77;8.30;;;;;;;25.19;42.99;101673.03;16133335;19;129890;-57
2022/07/20 17:08:42;;;;;;;17.38;8.90;;;;;;;25.18;42.58;101660.13;16137768;19;129237;-56
2022/07/20 17:14:04;;;;;;;16.90;8.65;;;;;;;25.17;42.88;101652.84;16133100;19;130543;-57
2022/07/20 17:19:27;;;;;;;15.35;8.23;;;;;;;25.15;42.41;101643.88;16133422;19;129777;-57
2022/07/20 17:24:50;;;;;;;11.68;8.35;;;;;;;25.14;43.03;101619.78;16132368;19;129807;-57
2022/07/20 17:30:12;;;;;;;12.82;7.80;;;;;;;25.12;43.06;101622.03;16134704;19;129750;-56
2022/07/20 17:35:35;;;;;;;20.77;7.97;;;;;;;25.11;43.03;101659.53;16129484;19;129906;-57
2022/07/20 17:41:00;;;;;;;12.68;7.40;;;;;;;25.10;43.13;101674.66;16129969;19;128913;-57
2022/07/20 17:46:21;;;;;;;12.95;8.05;;;;;;;25.10;43.04;101673.81;16135556;19;129250;-57
2022/07/20 17:51:44;;;;;;;12.80;7.68;;;;;;;25.07;42.99;101633.22;16135181;19;129322;-58
2022/07/20 17:57:06;;;;;;;14.00;8.38;;;;;;;25.06;43.16;101718.31;16134964;19;129365;-57
2022/07/20 18:02:29;;;;;;;10.27;7.40;;;;;;;25.04;43.24;101726.13;16145857;19;129375;-56
2022/07/20 18:07:51;;;;;;;11.35;7.22;;;;;;;25.01;43.23;101737.88;16150767;19;129132;-57
2022/07/20 18:13:13;;;;;;;10.38;7.60;;;;;;;25.00;42.97;101722.19;16148187;19;129216;-57
2022/07/20 18:18:55;;;;;;;12.07;7.13;;;;;;;24.97;42.84;101697.56;16152278;19;129081;-58
2022/07/20 18:24:17;;;;;;;10.63;7.35;;;;;;;24.96;43.37;101698.66;16143844;19;129114;-57
2022/07/20 18:29:39;;;;;;;11.57;7.53;;;;;;;24.95;43.58;101689.41;16146444;19;128859;-57
2022/07/20 18:35:01;;;;;;;11.18;7.80;;;;;;;24.95;43.82;101719.38;16145381;19;129523;-57
2022/07/20 18:40:23;;;;;;;12.50;7.78;;;;;;;24.94;43.37;101707.31;16148380;19;129513;-57
2022/07/20 18:46:04;;;;;;;11.32;7.93;;;;;;;24.94;43.68;101726.09;16148256;19;130180;-56
2022/07/20 18:51:27;;;;;;;13.50;8.20;;;;;;;24.95;43.76;101727.78;16147460;19;129381;-57
2022/07/20 18:56:49;;;;;;;11.00;7.90;;;;;;;24.95;43.60;101730.56;16145420;19;129278;-58
2022/07/20 19:02:30;;;;;;;10.90;7.45;;;;;;;24.94;44.06;101714.88;16144722;19;129993;-58
2022/07/20 19:07:52;;;;;;;11.05;7.72;;;;;;;24.94;43.78;101720.47;16146448;19;129124;-57
2022/07/20 19:13:14;;;;;;;10.63;7.32;;;;;;;24.94;44.04;101721.31;16140613;19;131208;-58
2022/07/20 19:18:36;;;;;;;14.23;7.72;;;;;;;24.93;43.81;101730.81;16143754;19;131586;-56
2022/07/20 19:23:58;;;;;;;9.45;7.35;;;;;;;24.93;43.78;101713.19;16139909;19;132219;-57
2022/07/20 19:29:20;;;;;;;12.63;7.30;;;;;;;24.93;43.85;101746.78;16144952;19;129614;-57
2022/07/20 19:34:42;;;;;;;12.48;7.20;;;;;;;24.91;44.09;101766.66;16145022;19;129791;-58
2022/07/20 19:40:06;;;;;;;8.23;6.75;;;;;;;24.91;44.14;101788.19;16140895;19;129002;-55
2022/07/20 19:45:28;;;;;;;7.80;6.40;;;;;;;24.87;43.96;101783.09;16144752;19;129873;-61
2022/07/20 19:50:50;;;;;;;9.98;6.68;;;;;;;24.88;44.00;101787.59;16143305;19;128866;-60
2022/07/20 19:56:14;;;;;;;8.75;6.60;;;;;;;24.87;43.97;101766.28;16140637;19;129773;-59
2022/07/20 20:01:36;;;;;;;7.97;6.67;;;;;;;24.84;44.15;101769.66;16144237;19;130383;-59
2022/07/20 20:06:58;;;;;;;10.65;5.97;;;;;;;24.82;44.14;101794.25;16136806;19;129380;-61
2022/07/20 20:12:20;;;;;;;13.65;6.07;;;;;;;24.79;44.56;101791.16;16136351;19;129826;-60
2022/07/20 20:17:42;;;;;;;8.93;6.35;;;;;;;24.76;44.68;101750.53;16139558;19;130211;-59
2022/07/20 20:23:04;;;;;;;8.10;5.82;;;;;;;24.75;45.02;101753.63;16127537;19;131523;-58
2022/07/20 20:28:26;;;;;;;14.40;6.25;;;;;;;24.74;45.29;101749.97;16135238;19;129986;-60
2022/07/20 20:34:08;;;;;;;10.05;5.28;;;;;;;24.75;45.45;101748.03;16123982;19;129820;-58
2022/07/20 20:39:29;;;;;;;16.52;5.93;;;;;;;24.80;45.26;101756.47;16131573;19;134166;-59
2022/07/20 20:44:51;;;;;;;14.57;5.63;;;;;;;24.81;45.26;101750.59;16136240;19;129626;-58
2022/07/20 20:50:16;;;;;;;13.07;5.60;;;;;;;24.81;44.92;101767.38;16138359;19;130558;-58
2022/07/20 20:55:38;;;;;;;;;;;;;;;24.78;45.06;101753.94;16132969;19;130030;-59
2022/07/20 21:01:01;;;;;;;8.52;5.13;;;;;;;24.81;45.06;101761.78;16130309;19;130519;-58
2022/07/20 21:06:23;;;;;;;8.60;4.60;;;;;;;24.80;45.48;101748.91;16127422;19;129196;-59
2022/07/20 21:11:45;;;;;;;8.05;4.93;;;;;;;24.79;45.28;101752.00;16137498;19;131317;-59
2022/07/20 21:17:10;;;;;;;6.88;4.80;;;;;;;24.77;45.21;101743.84;16138724;19;130863;-58
2022/07/20 21:22:33;;;;;;;6.65;4.55;;;;;;;24.76;45.45;101741.31;16135947;19;129172;-58
2022/07/20 21:27:55;;;;;;;10.27;4.63;;;;;;;24.75;45.30;101746.06;16138541;19;129407;-58
2022/07/20 21:33:17;;;;;;;6.72;5.03;;;;;;;24.74;45.30;101749.97;16130420;19;130158;-58
2022/07/20 21:38:39;;;;;;;6.35;4.53;;;;;;;24.72;45.28;101747.44;16146570;19;130788;-57
2022/07/20 21:44:01;;;;;;;6.88;4.15;;;;;;;24.71;44.98;101751.34;16149465;19;128921;-58
2022/07/20 21:49:22;;;;;;;8.25;4.70;;;;;;;24.71;45.32;101761.72;16148752;19;129118;-59
2022/07/20 21:54:51;;;;;;;7.82;4.80;;;;;;;24.69;45.25;101766.72;16144365;19;129954;-59
2022/07/20 22:00:13;;;;;;;5.32;4.13;;;;;;;24.68;45.32;101773.44;16145749;19;130150;-62
2022/07/20 22:05:35;;;;;;;5.93;4.43;;;;;;;24.68;45.27;101773.44;16132025;19;129085;-58
2022/07/20 22:10:57;;;;;;;10.85;4.18;;;;;;;24.67;45.36;101791.34;16139213;19;130107;-59
2022/07/20 22:16:19;;;;;;;6.28;3.92;;;;;;;24.67;45.41;101791.34;16139267;19;130317;-52
2022/07/20 22:21:45;;;;;;;5.05;4.10;;;;;;;24.69;45.48;101791.91;16143187;19;129744;-54
2022/07/20 22:27:07;;;;;;;5.75;4.20;;;;;;;24.71;45.36;101795.28;16148048;19;129535;-55
2022/07/20 22:32:29;;;;;;;4.88;3.95;;;;;;;24.72;45.16;101797.00;16145260;19;130116;-54
2022/07/20 22:37:50;;;;;;;5.47;4.00;;;;;;;24.70;45.04;101794.44;16142973;19;130491;-55
2022/07/20 22:43:12;;;;;;;4.75;3.80;;;;;;;24.71;45.34;101795.28;16142786;19;129999;-60
2022/07/20 22:48:34;;;;;;;3.92;3.58;;;;;;;24.71;44.92;101795.28;16143954;19;130351;-65
2022/07/20 22:53:56;;;;;;;4.68;3.78;;;;;;;24.70;45.26;101774.84;16136682;19;129986;-65
2022/07/20 22:59:18;;;;;;;5.18;4.03;;;;;;;24.70;45.16;101779.63;16144577;19;129462;-59
2022/07/20 23:04:40;;;;;;;4.72;3.90;;;;;;;24.69;44.92;101786.31;16140405;19;129342;-62
2022/07/20 23:10:05;;;;;;;7.13;3.75;;;;;;;24.68;45.17;101768.66;16139147;19;130256;-60
2022/07/20 23:15:27;;;;;;;6.55;3.72;;;;;;;24.68;45.23;101762.25;16137872;19;129142;-55
2022/07/20 23:20:49;;;;;;;4.25;3.40;;;;;;;24.69;45.18;101747.16;16140238;19;129769;-53
2022/07/20 23:26:11;;;;;;;4.35;3.38;;;;;;;24.68;45.37;101735.09;16138070;19;130121;-52
2022/07/20 23:31:33;;;;;;;3.83;3.28;;;;;;;24.68;45.35;101737.06;16137664;19;129721;-52
2022/07/20 23:37:03;;;;;;;4.88;3.55;;;;;;;24.69;44.70;101730.38;16134943;19;129482;-55
2022/07/20 23:42:24;;;;;;;3.75;3.35;;;;;;;24.68;45.16;101717.47;16138942;19;130357;-53
2022/07/20 23:47:51;;;;;;;3.83;3.20;;;;;;;24.68;45.07;101717.47;16142696;19;129620;-51
2022/07/20 23:53:13;;;;;;;3.80;3.13;;;;;;;24.66;45.19;101719.69;16140248;19;130208;-55
2022/07/20 23:58:34;;;;;;;4.35;3.30;;;;;;;24.65;44.93;101710.47;16140353;19;129500;-55
